sensor_id;sensor_type;location;lat;lon;timestamp;temperature;humidity
23122;DHT22;11730;51.248;22.534;2022-08-19T00:01:23;23.00;99.90
23122;DHT22;11730;51.248;22.534;2022-08-19T00:03:58;22.90;99.90
23122;DHT22;11730;51.248;22.534;2022-08-19T00:06:27;22.80;99.90
23122;DHT22;11730;51.248;22.534;2022-08-19T00:08:55;22.90;99.90
23122;DHT22;11730;51.248;22.534;2022-08-19T00:11:23;22.90;99.90
23122;DHT22;11730;51.248;22.534;2022-08-19T00:13:53;22.90;99.90
23122;DHT22;11730;51.248;22.534;2022-08-19T00:16:24;22.70;99.90
23122;DHT22;11730;51.248;22.534;2022-08-19T00:18:53;22.50;99.90
23122;DHT22;11730;51.248;22.534;2022-08-19T00:21:24;22.60;99.90
23122;DHT22;11730;51.248;22.534;2022-08-19T00:23:53;22.70;99.90
23122;DHT22;11730;51.248;22.534;2022-08-19T00:26:20;22.60;99.90
23122;DHT22;11730;51.248;22.534;2022-08-19T00:28:47;22.60;99.90
23122;DHT22;11730;51.248;22.534;2022-08-19T00:31:14;22.40;99.90
23122;DHT22;11730;51.248;22.534;2022-08-19T00:33:43;22.30;99.90
23122;DHT22;11730;51.248;22.534;2022-08-19T00:36:11;22.30;99.90
23122;DHT22;11730;51.248;22.534;2022-08-19T00:38:39;22.50;99.90
23122;DHT22;11730;51.248;22.534;2022-08-19T00:41:15;22.40;99.90
23122;DHT22;11730;51.248;22.534;2022-08-19T00:44:06;22.50;99.90
23122;DHT22;11730;51.248;22.534;2022-08-19T00:46:35;22.40;99.90
23122;DHT22;11730;51.248;22.534;2022-08-19T00:49:24;22.50;99.90
23122;DHT22;11730;51.248;22.534;2022-08-19T00:51:57;22.40;99.90
23122;DHT22;11730;51.248;22.534;2022-08-19T00:54:26;22.30;99.90
23122;DHT22;11730;51.248;22.534;2022-08-19T00:56:58;22.20;99.90
23122;DHT22;11730;51.248;22.534;2022-08-19T00:59:27;22.40;99.90
23122;DHT22;11730;51.248;22.534;2022-08-19T01:02:16;22.40;99.90
23122;DHT22;11730;51.248;22.534;2022-08-19T01:04:43;22.30;99.90
23122;DHT22;11730;51.248;22.534;2022-08-19T01:07:10;22.40;99.90
23122;DHT22;11730;51.248;22.534;2022-08-19T01:09:45;22.50;99.90
23122;DHT22;11730;51.248;22.534;2022-08-19T01:12:12;22.50;99.90
23122;DHT22;11730;51.248;22.534;2022-08-19T01:14:40;22.50;99.90
23122;DHT22;11730;51.248;22.534;2022-08-19T01:17:10;22.60;99.90
23122;DHT22;11730;51.248;22.534;2022-08-19T01:19:40;22.50;99.90
23122;DHT22;11730;51.248;22.534;2022-08-19T01:25:17;22.40;99.90
23122;DHT22;11730;51.248;22.534;2022-08-19T01:27:48;22.50;99.90
23122;DHT22;11730;51.248;22.534;2022-08-19T01:30:22;22.50;99.90
23122;DHT22;11730;51.248;22.534;2022-08-19T01:32:51;22.50;99.90
23122;DHT22;11730;51.248;22.534;2022-08-19T01:35:20;22.50;99.90
23122;DHT22;11730;51.248;22.534;2022-08-19T01:37:53;22.50;99.90
23122;DHT22;11730;51.248;22.534;2022-08-19T01:40:23;22.50;99.90
23122;DHT22;11730;51.248;22.534;2022-08-19T01:42:51;22.50;99.90
23122;DHT22;11730;51.248;22.534;2022-08-19T01:45:21;22.50;99.90
23122;DHT22;11730;51.248;22.534;2022-08-19T01:47:49;22.40;99.90
23122;DHT22;11730;51.248;22.534;2022-08-19T01:50:30;22.40;99.90
23122;DHT22;11730;51.248;22.534;2022-08-19T01:52:57;22.40;99.90
23122;DHT22;11730;51.248;22.534;2022-08-19T01:55:33;22.30;99.90
23122;DHT22;11730;51.248;22.534;2022-08-19T01:58:02;22.30;99.90
23122;DHT22;11730;51.248;22.534;2022-08-19T02:00:31;22.20;99.90
23122;DHT22;11730;51.248;22.534;2022-08-19T02:02:59;22.10;99.90
23122;DHT22;11730;51.248;22.534;2022-08-19T02:05:28;22.10;99.90
23122;DHT22;11730;51.248;22.534;2022-08-19T02:07:56;22.10;99.90
23122;DHT22;11730;51.248;22.534;2022-08-19T02:10:24;22.20;99.90
23122;DHT22;11730;51.248;22.534;2022-08-19T02:12:51;22.10;99.90
23122;DHT22;11730;51.248;22.534;2022-08-19T02:15:19;22.00;99.90
23122;DHT22;11730;51.248;22.534;2022-08-19T02:17:47;21.90;99.90
23122;DHT22;11730;51.248;22.534;2022-08-19T02:20:15;21.80;99.90
23122;DHT22;11730;51.248;22.534;2022-08-19T02:22:43;21.80;99.90
23122;DHT22;11730;51.248;22.534;2022-08-19T02:25:12;21.80;99.90
23122;DHT22;11730;51.248;22.534;2022-08-19T02:27:41;21.80;99.90
23122;DHT22;11730;51.248;22.534;2022-08-19T02:30:12;21.90;99.90
23122;DHT22;11730;51.248;22.534;2022-08-19T02:32:40;21.80;99.90
23122;DHT22;11730;51.248;22.534;2022-08-19T02:35:11;21.90;99.90
23122;DHT22;11730;51.248;22.534;2022-08-19T02:37:39;21.80;99.90
23122;DHT22;11730;51.248;22.534;2022-08-19T02:40:25;21.80;99.90
23122;DHT22;11730;51.248;22.534;2022-08-19T02:42:52;21.70;99.90
23122;DHT22;11730;51.248;22.534;2022-08-19T02:47:47;21.80;99.90
23122;DHT22;11730;51.248;22.534;2022-08-19T02:50:14;21.80;99.90
23122;DHT22;11730;51.248;22.534;2022-08-19T02:52:41;21.80;99.90
23122;DHT22;11730;51.248;22.534;2022-08-19T02:55:08;21.80;99.90
23122;DHT22;11730;51.248;22.534;2022-08-19T02:57:36;21.80;99.90
23122;DHT22;11730;51.248;22.534;2022-08-19T03:00:06;21.80;99.90
23122;DHT22;11730;51.248;22.534;2022-08-19T03:02:34;21.80;99.90
23122;DHT22;11730;51.248;22.534;2022-08-19T03:05:03;21.80;99.90
23122;DHT22;11730;51.248;22.534;2022-08-19T03:07:29;21.80;99.90
23122;DHT22;11730;51.248;22.534;2022-08-19T03:09:57;21.80;99.90
23122;DHT22;11730;51.248;22.534;2022-08-19T03:12:25;21.70;99.90
23122;DHT22;11730;51.248;22.534;2022-08-19T03:14:52;21.70;99.90
23122;DHT22;11730;51.248;22.534;2022-08-19T03:17:19;21.60;99.90
23122;DHT22;11730;51.248;22.534;2022-08-19T03:19:46;21.60;99.90
23122;DHT22;11730;51.248;22.534;2022-08-19T03:22:13;21.60;99.90
23122;DHT22;11730;51.248;22.534;2022-08-19T03:24:40;21.60;99.90
23122;DHT22;11730;51.248;22.534;2022-08-19T03:27:07;21.60;99.90
23122;DHT22;11730;51.248;22.534;2022-08-19T03:29:37;21.40;99.90
23122;DHT22;11730;51.248;22.534;2022-08-19T03:32:09;21.40;99.90
23122;DHT22;11730;51.248;22.534;2022-08-19T03:34:56;21.40;99.90
23122;DHT22;11730;51.248;22.534;2022-08-19T03:37:23;21.40;99.90
23122;DHT22;11730;51.248;22.534;2022-08-19T03:39:51;21.30;99.90
23122;DHT22;11730;51.248;22.534;2022-08-19T03:42:18;21.20;99.90
23122;DHT22;11730;51.248;22.534;2022-08-19T03:45:05;21.20;99.90
23122;DHT22;11730;51.248;22.534;2022-08-19T03:47:34;21.30;99.90
23122;DHT22;11730;51.248;22.534;2022-08-19T03:50:01;21.40;99.90
23122;DHT22;11730;51.248;22.534;2022-08-19T03:52:28;21.40;99.90
23122;DHT22;11730;51.248;22.534;2022-08-19T03:54:55;21.50;99.90
23122;DHT22;11730;51.248;22.534;2022-08-19T03:57:22;21.50;99.90
23122;DHT22;11730;51.248;22.534;2022-08-19T03:59:57;21.50;99.90
23122;DHT22;11730;51.248;22.534;2022-08-19T04:02:38;21.60;99.90
23122;DHT22;11730;51.248;22.534;2022-08-19T04:05:06;21.60;99.90
23122;DHT22;11730;51.248;22.534;2022-08-19T04:07:34;21.60;99.90
23122;DHT22;11730;51.248;22.534;2022-08-19T04:10:03;21.70;99.90
23122;DHT22;11730;51.248;22.534;2022-08-19T04:12:31;21.70;99.90
23122;DHT22;11730;51.248;22.534;2022-08-19T04:14:58;21.70;99.90
23122;DHT22;11730;51.248;22.534;2022-08-19T04:17:25;21.70;99.90
23122;DHT22;11730;51.248;22.534;2022-08-19T04:19:52;21.80;99.90
23122;DHT22;11730;51.248;22.534;2022-08-19T04:22:19;21.80;99.90
23122;DHT22;11730;51.248;22.534;2022-08-19T04:24:46;21.70;99.90
23122;DHT22;11730;51.248;22.534;2022-08-19T04:27:13;21.70;99.90
23122;DHT22;11730;51.248;22.534;2022-08-19T04:29:40;21.70;99.90
23122;DHT22;11730;51.248;22.534;2022-08-19T04:32:10;21.60;99.90
23122;DHT22;11730;51.248;22.534;2022-08-19T04:34:37;21.60;99.90
23122;DHT22;11730;51.248;22.534;2022-08-19T04:37:26;21.60;99.90
23122;DHT22;11730;51.248;22.534;2022-08-19T04:40:00;21.60;99.90
23122;DHT22;11730;51.248;22.534;2022-08-19T04:42:46;21.80;99.90
23122;DHT22;11730;51.248;22.534;2022-08-19T04:45:14;21.80;99.90
23122;DHT22;11730;51.248;22.534;2022-08-19T04:47:43;21.80;99.90
23122;DHT22;11730;51.248;22.534;2022-08-19T04:50:27;21.90;99.90
23122;DHT22;11730;51.248;22.534;2022-08-19T04:52:54;21.80;99.90
23122;DHT22;11730;51.248;22.534;2022-08-19T04:55:23;21.90;99.90
23122;DHT22;11730;51.248;22.534;2022-08-19T04:57:53;21.90;99.90
23122;DHT22;11730;51.248;22.534;2022-08-19T05:00:20;21.80;99.90
23122;DHT22;11730;51.248;22.534;2022-08-19T05:02:47;21.90;99.90
23122;DHT22;11730;51.248;22.534;2022-08-19T05:05:16;22.00;99.90
23122;DHT22;11730;51.248;22.534;2022-08-19T05:07:43;22.10;99.90
23122;DHT22;11730;51.248;22.534;2022-08-19T05:10:10;22.10;99.90
23122;DHT22;11730;51.248;22.534;2022-08-19T05:12:37;22.20;99.90
23122;DHT22;11730;51.248;22.534;2022-08-19T05:15:05;22.20;99.90
23122;DHT22;11730;51.248;22.534;2022-08-19T05:17:33;22.30;99.90
23122;DHT22;11730;51.248;22.534;2022-08-19T05:20:05;22.40;99.90
23122;DHT22;11730;51.248;22.534;2022-08-19T05:22:52;22.40;99.90
23122;DHT22;11730;51.248;22.534;2022-08-19T05:25:20;22.40;99.90
23122;DHT22;11730;51.248;22.534;2022-08-19T05:27:48;22.40;99.90
23122;DHT22;11730;51.248;22.534;2022-08-19T05:30:15;22.40;99.90
23122;DHT22;11730;51.248;22.534;2022-08-19T05:32:43;22.60;99.90
23122;DHT22;11730;51.248;22.534;2022-08-19T05:35:11;22.60;99.90
23122;DHT22;11730;51.248;22.534;2022-08-19T05:37:38;22.70;99.90
23122;DHT22;11730;51.248;22.534;2022-08-19T05:40:08;22.80;99.90
23122;DHT22;11730;51.248;22.534;2022-08-19T05:42:35;22.80;99.90
23122;DHT22;11730;51.248;22.534;2022-08-19T05:45:03;22.90;99.90
23122;DHT22;11730;51.248;22.534;2022-08-19T05:47:31;22.90;99.90
23122;DHT22;11730;51.248;22.534;2022-08-19T05:49:59;23.00;99.90
23122;DHT22;11730;51.248;22.534;2022-08-19T05:52:27;23.10;99.90
23122;DHT22;11730;51.248;22.534;2022-08-19T05:54:56;23.10;99.90
23122;DHT22;11730;51.248;22.534;2022-08-19T05:57:24;23.30;99.90
23122;DHT22;11730;51.248;22.534;2022-08-19T05:59:51;23.20;99.90
23122;DHT22;11730;51.248;22.534;2022-08-19T06:02:28;23.20;99.90
23122;DHT22;11730;51.248;22.534;2022-08-19T06:04:57;23.40;99.90
23122;DHT22;11730;51.248;22.534;2022-08-19T06:07:24;23.60;99.90
23122;DHT22;11730;51.248;22.534;2022-08-19T06:09:51;23.60;99.90
23122;DHT22;11730;51.248;22.534;2022-08-19T06:12:27;23.70;99.90
23122;DHT22;11730;51.248;22.534;2022-08-19T06:15:03;23.60;99.90
23122;DHT22;11730;51.248;22.534;2022-08-19T06:17:31;23.70;99.90
23122;DHT22;11730;51.248;22.534;2022-08-19T06:19:58;23.70;99.90
23122;DHT22;11730;51.248;22.534;2022-08-19T06:22:27;23.60;99.90
23122;DHT22;11730;51.248;22.534;2022-08-19T06:24:54;23.70;99.90
23122;DHT22;11730;51.248;22.534;2022-08-19T06:27:22;23.80;99.90
23122;DHT22;11730;51.248;22.534;2022-08-19T06:29:49;23.90;99.90
23122;DHT22;11730;51.248;22.534;2022-08-19T06:32:17;24.00;99.90
23122;DHT22;11730;51.248;22.534;2022-08-19T06:34:45;24.00;99.90
23122;DHT22;11730;51.248;22.534;2022-08-19T06:37:13;24.00;99.90
23122;DHT22;11730;51.248;22.534;2022-08-19T06:39:42;24.20;99.90
23122;DHT22;11730;51.248;22.534;2022-08-19T06:42:10;24.30;99.90
23122;DHT22;11730;51.248;22.534;2022-08-19T06:44:41;24.30;99.90
23122;DHT22;11730;51.248;22.534;2022-08-19T06:47:18;24.50;99.90
23122;DHT22;11730;51.248;22.534;2022-08-19T06:49:57;24.60;99.90
23122;DHT22;11730;51.248;22.534;2022-08-19T06:52:32;24.70;99.90
23122;DHT22;11730;51.248;22.534;2022-08-19T06:55:03;24.80;99.90
23122;DHT22;11730;51.248;22.534;2022-08-19T06:57:32;25.10;99.90
23122;DHT22;11730;51.248;22.534;2022-08-19T06:59:59;25.20;99.90
23122;DHT22;11730;51.248;22.534;2022-08-19T07:02:26;25.40;99.90
23122;DHT22;11730;51.248;22.534;2022-08-19T07:04:54;25.70;99.90
23122;DHT22;11730;51.248;22.534;2022-08-19T07:07:24;26.10;99.90
23122;DHT22;11730;51.248;22.534;2022-08-19T07:09:51;26.90;99.90
23122;DHT22;11730;51.248;22.534;2022-08-19T07:12:29;26.90;99.90
23122;DHT22;11730;51.248;22.534;2022-08-19T07:15:04;27.20;99.90
23122;DHT22;11730;51.248;22.534;2022-08-19T07:17:31;27.70;99.90
23122;DHT22;11730;51.248;22.534;2022-08-19T07:20:01;27.70;99.90
23122;DHT22;11730;51.248;22.534;2022-08-19T07:22:34;28.20;99.90
23122;DHT22;11730;51.248;22.534;2022-08-19T07:25:02;27.90;99.90
23122;DHT22;11730;51.248;22.534;2022-08-19T07:27:30;28.20;99.90
23122;DHT22;11730;51.248;22.534;2022-08-19T07:29:59;28.90;99.90
23122;DHT22;11730;51.248;22.534;2022-08-19T07:32:26;29.50;99.90
23122;DHT22;11730;51.248;22.534;2022-08-19T07:34:54;29.50;99.90
23122;DHT22;11730;51.248;22.534;2022-08-19T07:37:24;29.70;99.90
23122;DHT22;11730;51.248;22.534;2022-08-19T07:39:59;30.30;98.50
23122;DHT22;11730;51.248;22.534;2022-08-19T07:42:26;30.60;96.80
23122;DHT22;11730;51.248;22.534;2022-08-19T07:44:57;30.50;96.40
23122;DHT22;11730;51.248;22.534;2022-08-19T07:47:25;31.10;96.00
23122;DHT22;11730;51.248;22.534;2022-08-19T07:52:41;31.50;93.80
23122;DHT22;11730;51.248;22.534;2022-08-19T07:55:15;31.40;93.00
23122;DHT22;11730;51.248;22.534;2022-08-19T07:58:02;31.20;94.60
23122;DHT22;11730;51.248;22.534;2022-08-19T08:00:31;31.00;96.40
23122;DHT22;11730;51.248;22.534;2022-08-19T08:02:58;30.90;95.70
23122;DHT22;11730;51.248;22.534;2022-08-19T08:05:25;30.90;96.00
23122;DHT22;11730;51.248;22.534;2022-08-19T08:08:14;30.60;93.20
23122;DHT22;11730;51.248;22.534;2022-08-19T08:10:59;30.80;93.40
23122;DHT22;11730;51.248;22.534;2022-08-19T08:13:27;31.60;91.50
23122;DHT22;11730;51.248;22.534;2022-08-19T08:15:55;31.80;91.10
23122;DHT22;11730;51.248;22.534;2022-08-19T08:18:23;31.60;90.90
23122;DHT22;11730;51.248;22.534;2022-08-19T08:20:57;31.60;90.40
23122;DHT22;11730;51.248;22.534;2022-08-19T08:23:24;31.00;91.00
23122;DHT22;11730;51.248;22.534;2022-08-19T08:25:57;31.20;90.50
23122;DHT22;11730;51.248;22.534;2022-08-19T08:28:25;31.20;89.50
23122;DHT22;11730;51.248;22.534;2022-08-19T08:30:56;31.20;90.10
23122;DHT22;11730;51.248;22.534;2022-08-19T08:33:25;31.00;89.70
23122;DHT22;11730;51.248;22.534;2022-08-19T08:36:10;31.40;87.60
23122;DHT22;11730;51.248;22.534;2022-08-19T08:38:38;31.60;85.90
23122;DHT22;11730;51.248;22.534;2022-08-19T08:41:38;31.50;86.80
23122;DHT22;11730;51.248;22.534;2022-08-19T08:44:14;31.70;85.50
23122;DHT22;11730;51.248;22.534;2022-08-19T08:46:50;32.00;86.00
23122;DHT22;11730;51.248;22.534;2022-08-19T08:52:21;32.00;80.20
23122;DHT22;11730;51.248;22.534;2022-08-19T08:54:52;32.10;79.20
23122;DHT22;11730;51.248;22.534;2022-08-19T08:57:35;32.40;79.00
23122;DHT22;11730;51.248;22.534;2022-08-19T09:00:15;32.30;78.40
23122;DHT22;11730;51.248;22.534;2022-08-19T09:02:44;32.10;78.50
23122;DHT22;11730;51.248;22.534;2022-08-19T09:05:16;32.20;78.40
23122;DHT22;11730;51.248;22.534;2022-08-19T09:08:08;32.30;79.10
23122;DHT22;11730;51.248;22.534;2022-08-19T09:10:46;32.60;77.00
23122;DHT22;11730;51.248;22.534;2022-08-19T09:16:13;32.80;76.40
23122;DHT22;11730;51.248;22.534;2022-08-19T09:18:43;33.30;75.80
23122;DHT22;11730;51.248;22.534;2022-08-19T09:21:12;33.50;73.50
23122;DHT22;11730;51.248;22.534;2022-08-19T09:23:40;33.70;73.50
23122;DHT22;11730;51.248;22.534;2022-08-19T09:26:10;33.80;72.50
23122;DHT22;11730;51.248;22.534;2022-08-19T09:28:43;34.00;68.80
23122;DHT22;11730;51.248;22.534;2022-08-19T09:31:17;33.80;67.40
23122;DHT22;11730;51.248;22.534;2022-08-19T09:33:45;33.80;69.80
23122;DHT22;11730;51.248;22.534;2022-08-19T09:36:14;34.30;70.20
23122;DHT22;11730;51.248;22.534;2022-08-19T09:38:50;34.60;66.30
23122;DHT22;11730;51.248;22.534;2022-08-19T09:41:20;33.70;66.80
23122;DHT22;11730;51.248;22.534;2022-08-19T09:43:51;34.10;67.70
23122;DHT22;11730;51.248;22.534;2022-08-19T09:46:25;34.20;65.80
23122;DHT22;11730;51.248;22.534;2022-08-19T09:48:53;34.60;66.20
23122;DHT22;11730;51.248;22.534;2022-08-19T09:51:24;34.40;65.30
23122;DHT22;11730;51.248;22.534;2022-08-19T09:53:54;34.50;65.70
23122;DHT22;11730;51.248;22.534;2022-08-19T09:56:22;34.90;63.80
23122;DHT22;11730;51.248;22.534;2022-08-19T09:58:50;34.60;62.80
23122;DHT22;11730;51.248;22.534;2022-08-19T10:01:19;34.70;63.90
23122;DHT22;11730;51.248;22.534;2022-08-19T10:03:49;34.90;61.70
23122;DHT22;11730;51.248;22.534;2022-08-19T10:06:18;34.80;61.50
23122;DHT22;11730;51.248;22.534;2022-08-19T10:09:07;35.10;62.30
23122;DHT22;11730;51.248;22.534;2022-08-19T10:11:38;35.50;62.60
23122;DHT22;11730;51.248;22.534;2022-08-19T10:14:14;35.90;61.10
23122;DHT22;11730;51.248;22.534;2022-08-19T10:16:42;35.40;62.20
23122;DHT22;11730;51.248;22.534;2022-08-19T10:19:09;35.50;61.80
23122;DHT22;11730;51.248;22.534;2022-08-19T10:21:36;35.60;59.60
23122;DHT22;11730;51.248;22.534;2022-08-19T10:24:06;35.60;59.40
23122;DHT22;11730;51.248;22.534;2022-08-19T10:26:37;36.20;58.70
23122;DHT22;11730;51.248;22.534;2022-08-19T10:29:05;36.30;57.70
23122;DHT22;11730;51.248;22.534;2022-08-19T10:31:35;36.20;58.10
23122;DHT22;11730;51.248;22.534;2022-08-19T10:34:22;36.50;57.70
23122;DHT22;11730;51.248;22.534;2022-08-19T10:36:54;36.90;58.40
23122;DHT22;11730;51.248;22.534;2022-08-19T10:39:28;37.20;57.60
23122;DHT22;11730;51.248;22.534;2022-08-19T10:41:57;37.70;57.00
23122;DHT22;11730;51.248;22.534;2022-08-19T10:44:24;37.10;54.00
23122;DHT22;11730;51.248;22.534;2022-08-19T10:46:58;37.70;53.20
23122;DHT22;11730;51.248;22.534;2022-08-19T10:49:25;37.70;52.30
23122;DHT22;11730;51.248;22.534;2022-08-19T10:51:54;38.40;52.50
23122;DHT22;11730;51.248;22.534;2022-08-19T10:54:46;38.40;51.30
23122;DHT22;11730;51.248;22.534;2022-08-19T10:57:34;38.00;52.00
23122;DHT22;11730;51.248;22.534;2022-08-19T11:00:22;37.90;52.00
23122;DHT22;11730;51.248;22.534;2022-08-19T11:02:50;38.20;51.70
23122;DHT22;11730;51.248;22.534;2022-08-19T11:05:18;37.70;50.90
23122;DHT22;11730;51.248;22.534;2022-08-19T11:07:45;37.70;53.60
23122;DHT22;11730;51.248;22.534;2022-08-19T11:10:14;37.70;52.10
23122;DHT22;11730;51.248;22.534;2022-08-19T11:12:46;38.10;51.60
23122;DHT22;11730;51.248;22.534;2022-08-19T11:15:14;38.00;51.50
23122;DHT22;11730;51.248;22.534;2022-08-19T11:17:41;38.00;52.00
23122;DHT22;11730;51.248;22.534;2022-08-19T11:20:09;38.60;51.30
23122;DHT22;11730;51.248;22.534;2022-08-19T11:22:36;38.70;51.00
23122;DHT22;11730;51.248;22.534;2022-08-19T11:25:09;39.10;50.20
23122;DHT22;11730;51.248;22.534;2022-08-19T11:27:40;39.30;51.00
23122;DHT22;11730;51.248;22.534;2022-08-19T11:30:11;39.70;50.10
23122;DHT22;11730;51.248;22.534;2022-08-19T11:32:40;39.40;51.30
23122;DHT22;11730;51.248;22.534;2022-08-19T11:35:15;38.90;50.10
23122;DHT22;11730;51.248;22.534;2022-08-19T11:37:42;38.80;50.30
23122;DHT22;11730;51.248;22.534;2022-08-19T11:40:10;38.10;50.90
23122;DHT22;11730;51.248;22.534;2022-08-19T11:42:37;38.50;50.00
23122;DHT22;11730;51.248;22.534;2022-08-19T11:45:24;37.90;50.60
23122;DHT22;11730;51.248;22.534;2022-08-19T11:47:51;37.90;51.50
23122;DHT22;11730;51.248;22.534;2022-08-19T11:50:18;37.60;52.30
23122;DHT22;11730;51.248;22.534;2022-08-19T11:52:46;38.00;52.50
23122;DHT22;11730;51.248;22.534;2022-08-19T11:55:14;38.00;54.70
23122;DHT22;11730;51.248;22.534;2022-08-19T11:57:41;38.10;51.10
23122;DHT22;11730;51.248;22.534;2022-08-19T12:00:10;37.80;50.90
23122;DHT22;11730;51.248;22.534;2022-08-19T12:02:39;36.80;51.80
23122;DHT22;11730;51.248;22.534;2022-08-19T12:05:07;36.50;53.70
23122;DHT22;11730;51.248;22.534;2022-08-19T12:07:39;36.50;52.50
23122;DHT22;11730;51.248;22.534;2022-08-19T12:10:07;36.70;53.80
23122;DHT22;11730;51.248;22.534;2022-08-19T12:12:36;37.30;51.70
23122;DHT22;11730;51.248;22.534;2022-08-19T12:15:07;37.00;50.60
23122;DHT22;11730;51.248;22.534;2022-08-19T12:17:34;36.80;50.90
23122;DHT22;11730;51.248;22.534;2022-08-19T12:20:02;36.00;50.90
23122;DHT22;11730;51.248;22.534;2022-08-19T12:22:29;36.00;52.00
23122;DHT22;11730;51.248;22.534;2022-08-19T12:24:57;35.90;52.50
23122;DHT22;11730;51.248;22.534;2022-08-19T12:27:24;35.50;53.30
23122;DHT22;11730;51.248;22.534;2022-08-19T12:30:09;35.70;54.30
23122;DHT22;11730;51.248;22.534;2022-08-19T12:32:37;35.50;54.50
23122;DHT22;11730;51.248;22.534;2022-08-19T12:35:06;35.50;55.50
23122;DHT22;11730;51.248;22.534;2022-08-19T12:37:33;35.50;55.70
23122;DHT22;11730;51.248;22.534;2022-08-19T12:40:00;35.80;57.10
23122;DHT22;11730;51.248;22.534;2022-08-19T12:42:27;36.20;55.80
23122;DHT22;11730;51.248;22.534;2022-08-19T12:44:55;35.70;56.10
23122;DHT22;11730;51.248;22.534;2022-08-19T12:47:22;35.50;54.40
23122;DHT22;11730;51.248;22.534;2022-08-19T12:49:50;35.50;54.30
23122;DHT22;11730;51.248;22.534;2022-08-19T12:52:25;35.10;54.90
23122;DHT22;11730;51.248;22.534;2022-08-19T12:54:55;35.00;55.60
23122;DHT22;11730;51.248;22.534;2022-08-19T12:57:25;34.50;55.80
23122;DHT22;11730;51.248;22.534;2022-08-19T13:00:08;34.50;56.40
23122;DHT22;11730;51.248;22.534;2022-08-19T13:02:40;35.20;57.30
23122;DHT22;11730;51.248;22.534;2022-08-19T13:05:10;35.40;56.60
23122;DHT22;11730;51.248;22.534;2022-08-19T13:07:39;35.50;55.40
23122;DHT22;11730;51.248;22.534;2022-08-19T13:10:09;35.50;56.30
23122;DHT22;11730;51.248;22.534;2022-08-19T13:12:39;35.00;54.60
23122;DHT22;11730;51.248;22.534;2022-08-19T13:15:08;34.80;56.30
23122;DHT22;11730;51.248;22.534;2022-08-19T13:17:37;34.90;56.50
23122;DHT22;11730;51.248;22.534;2022-08-19T13:20:06;34.50;56.50
23122;DHT22;11730;51.248;22.534;2022-08-19T13:22:35;33.90;57.40
23122;DHT22;11730;51.248;22.534;2022-08-19T13:25:04;34.40;57.70
23122;DHT22;11730;51.248;22.534;2022-08-19T13:27:31;34.70;58.00
23122;DHT22;11730;51.248;22.534;2022-08-19T13:29:59;34.60;59.50
23122;DHT22;11730;51.248;22.534;2022-08-19T13:32:45;34.40;58.00
23122;DHT22;11730;51.248;22.534;2022-08-19T13:35:31;34.60;60.10
23122;DHT22;11730;51.248;22.534;2022-08-19T13:37:58;34.80;58.10
23122;DHT22;11730;51.248;22.534;2022-08-19T13:40:25;34.70;57.30
23122;DHT22;11730;51.248;22.534;2022-08-19T13:42:54;34.70;58.30
23122;DHT22;11730;51.248;22.534;2022-08-19T13:45:24;34.40;57.70
23122;DHT22;11730;51.248;22.534;2022-08-19T13:47:53;34.20;58.30
23122;DHT22;11730;51.248;22.534;2022-08-19T13:50:29;34.30;59.80
23122;DHT22;11730;51.248;22.534;2022-08-19T13:53:01;34.40;58.80
23122;DHT22;11730;51.248;22.534;2022-08-19T13:55:29;34.50;58.70
23122;DHT22;11730;51.248;22.534;2022-08-19T13:57:59;34.50;58.90
23122;DHT22;11730;51.248;22.534;2022-08-19T14:00:30;34.60;58.50
23122;DHT22;11730;51.248;22.534;2022-08-19T14:02:57;34.50;58.60
23122;DHT22;11730;51.248;22.534;2022-08-19T14:05:26;34.10;58.40
23122;DHT22;11730;51.248;22.534;2022-08-19T14:07:54;34.30;59.20
23122;DHT22;11730;51.248;22.534;2022-08-19T14:10:22;34.30;58.70
23122;DHT22;11730;51.248;22.534;2022-08-19T14:12:53;34.10;58.80
23122;DHT22;11730;51.248;22.534;2022-08-19T14:15:22;34.10;59.50
23122;DHT22;11730;51.248;22.534;2022-08-19T14:17:49;34.10;59.10
23122;DHT22;11730;51.248;22.534;2022-08-19T14:20:17;33.90;58.60
23122;DHT22;11730;51.248;22.534;2022-08-19T14:22:46;34.00;59.50
23122;DHT22;11730;51.248;22.534;2022-08-19T14:25:19;33.70;59.60
23122;DHT22;11730;51.248;22.534;2022-08-19T14:27:47;34.00;60.40
23122;DHT22;11730;51.248;22.534;2022-08-19T14:30:19;34.10;59.20
23122;DHT22;11730;51.248;22.534;2022-08-19T14:32:46;33.90;60.10
23122;DHT22;11730;51.248;22.534;2022-08-19T14:35:15;33.80;59.90
23122;DHT22;11730;51.248;22.534;2022-08-19T14:37:43;33.80;60.80
23122;DHT22;11730;51.248;22.534;2022-08-19T14:40:16;33.60;60.30
23122;DHT22;11730;51.248;22.534;2022-08-19T14:42:44;33.80;60.20
23122;DHT22;11730;51.248;22.534;2022-08-19T14:45:11;33.70;59.80
23122;DHT22;11730;51.248;22.534;2022-08-19T14:47:39;33.70;60.10
23122;DHT22;11730;51.248;22.534;2022-08-19T14:50:09;33.30;60.90
23122;DHT22;11730;51.248;22.534;2022-08-19T14:52:44;33.10;60.70
23122;DHT22;11730;51.248;22.534;2022-08-19T14:55:11;32.90;61.10
23122;DHT22;11730;51.248;22.534;2022-08-19T14:57:41;32.90;62.00
23122;DHT22;11730;51.248;22.534;2022-08-19T15:00:09;32.80;61.10
23122;DHT22;11730;51.248;22.534;2022-08-19T15:02:42;32.80;61.40
23122;DHT22;11730;51.248;22.534;2022-08-19T15:05:11;32.70;61.30
23122;DHT22;11730;51.248;22.534;2022-08-19T15:07:39;32.50;62.40
23122;DHT22;11730;51.248;22.534;2022-08-19T15:10:07;32.70;62.70
23122;DHT22;11730;51.248;22.534;2022-08-19T15:12:37;32.50;62.50
23122;DHT22;11730;51.248;22.534;2022-08-19T15:15:09;32.50;61.20
23122;DHT22;11730;51.248;22.534;2022-08-19T15:17:42;32.40;62.00
23122;DHT22;11730;51.248;22.534;2022-08-19T15:20:13;32.40;61.50
23122;DHT22;11730;51.248;22.534;2022-08-19T15:22:40;32.20;62.00
23122;DHT22;11730;51.248;22.534;2022-08-19T15:25:11;32.20;62.20
23122;DHT22;11730;51.248;22.534;2022-08-19T15:27:40;32.00;62.60
23122;DHT22;11730;51.248;22.534;2022-08-19T15:30:09;31.90;63.20
23122;DHT22;11730;51.248;22.534;2022-08-19T15:32:37;32.10;63.00
23122;DHT22;11730;51.248;22.534;2022-08-19T15:35:06;32.20;62.70
23122;DHT22;11730;51.248;22.534;2022-08-19T15:37:33;31.90;61.90
23122;DHT22;11730;51.248;22.534;2022-08-19T15:40:04;31.90;62.60
23122;DHT22;11730;51.248;22.534;2022-08-19T15:42:32;32.00;63.10
23122;DHT22;11730;51.248;22.534;2022-08-19T15:45:01;31.90;63.10
23122;DHT22;11730;51.248;22.534;2022-08-19T15:47:29;31.80;62.80
23122;DHT22;11730;51.248;22.534;2022-08-19T15:50:09;31.80;62.40